Terminal Aerodrome Forecast
Issued by NWS Jackson, MS

Current Version | Previous Version | Text Only | Print | Product List | Glossary On
Versions: 1 2 3 4 5 6 7 8 9 10 11 12 13 14 15 16 17 18 19 20
000
FTUS44 KMEG 311120
TAFTUP
TAF
KTUP 311120Z 3112/0112 00000KT P6SM SKC
     FM311500 11005KT P6SM BKN150 OVC250
     FM010600 19004KT P6SM OVC100
     FM011000 20007KT P6SM OVC080=

USA.gov is the U.S. government's official web portal to all federal, state and local government web resources and services.